sensor_id;sensor_type;location;lat;lon;timestamp;P1;durP1;ratioP1;P2;durP2;ratioP2
48733;SDS011;34530;52.084;5.146;2023-03-23T00:01:17;3.35;;;1.88;;
48733;SDS011;34530;52.084;5.146;2023-03-23T00:03:46;3.30;;;2.05;;
48733;SDS011;34530;52.084;5.146;2023-03-23T00:06:16;4.22;;;2.25;;
48733;SDS011;34530;52.084;5.146;2023-03-23T00:08:46;3.25;;;1.83;;
48733;SDS011;34530;52.084;5.146;2023-03-23T00:11:18;4.32;;;2.42;;
48733;SDS011;34530;52.084;5.146;2023-03-23T00:13:46;5.18;;;1.80;;
48733;SDS011;34530;52.084;5.146;2023-03-23T00:16:22;3.22;;;1.73;;
48733;SDS011;34530;52.084;5.146;2023-03-23T00:18:57;3.42;;;1.80;;
48733;SDS011;34530;52.084;5.146;2023-03-23T00:21:26;2.80;;;1.60;;
48733;SDS011;34530;52.084;5.146;2023-03-23T00:24:01;3.38;;;2.00;;
48733;SDS011;34530;52.084;5.146;2023-03-23T00:26:34;3.85;;;2.00;;
48733;SDS011;34530;52.084;5.146;2023-03-23T00:29:04;3.70;;;2.05;;
48733;SDS011;34530;52.084;5.146;2023-03-23T00:31:30;3.47;;;1.85;;
48733;SDS011;34530;52.084;5.146;2023-03-23T00:33:58;4.25;;;2.13;;
48733;SDS011;34530;52.084;5.146;2023-03-23T00:36:26;3.50;;;2.03;;
48733;SDS011;34530;52.084;5.146;2023-03-23T00:38:53;4.10;;;2.20;;
48733;SDS011;34530;52.084;5.146;2023-03-23T00:41:19;4.10;;;1.92;;
48733;SDS011;34530;52.084;5.146;2023-03-23T00:43:45;2.22;;;1.75;;
48733;SDS011;34530;52.084;5.146;2023-03-23T00:46:11;2.25;;;1.58;;
48733;SDS011;34530;52.084;5.146;2023-03-23T00:48:36;3.45;;;2.30;;
48733;SDS011;34530;52.084;5.146;2023-03-23T00:51:09;4.82;;;1.95;;
48733;SDS011;34530;52.084;5.146;2023-03-23T00:53:36;3.13;;;1.83;;
48733;SDS011;34530;52.084;5.146;2023-03-23T00:56:03;3.97;;;2.03;;
48733;SDS011;34530;52.084;5.146;2023-03-23T00:58:29;3.63;;;1.60;;
48733;SDS011;34530;52.084;5.146;2023-03-23T01:00:55;2.10;;;1.70;;
48733;SDS011;34530;52.084;5.146;2023-03-23T01:03:21;3.13;;;2.13;;
48733;SDS011;34530;52.084;5.146;2023-03-23T01:05:50;4.85;;;1.90;;
48733;SDS011;34530;52.084;5.146;2023-03-23T01:08:17;4.95;;;1.92;;
48733;SDS011;34530;52.084;5.146;2023-03-23T01:10:45;3.75;;;2.00;;
48733;SDS011;34530;52.084;5.146;2023-03-23T01:13:11;2.45;;;1.48;;
48733;SDS011;34530;52.084;5.146;2023-03-23T01:15:37;1.67;;;1.52;;
48733;SDS011;34530;52.084;5.146;2023-03-23T01:18:03;3.10;;;1.73;;
48733;SDS011;34530;52.084;5.146;2023-03-23T01:20:30;3.15;;;1.90;;
48733;SDS011;34530;52.084;5.146;2023-03-23T01:22:59;2.88;;;1.73;;
48733;SDS011;34530;52.084;5.146;2023-03-23T01:25:30;2.72;;;1.52;;
48733;SDS011;34530;52.084;5.146;2023-03-23T01:28:00;2.97;;;2.10;;
48733;SDS011;34530;52.084;5.146;2023-03-23T01:30:26;2.67;;;1.73;;
48733;SDS011;34530;52.084;5.146;2023-03-23T01:32:51;2.33;;;1.90;;
48733;SDS011;34530;52.084;5.146;2023-03-23T01:35:18;3.08;;;1.70;;
48733;SDS011;34530;52.084;5.146;2023-03-23T01:37:44;3.33;;;1.80;;
48733;SDS011;34530;52.084;5.146;2023-03-23T01:40:10;1.70;;;1.50;;
48733;SDS011;34530;52.084;5.146;2023-03-23T01:42:37;2.47;;;1.70;;
48733;SDS011;34530;52.084;5.146;2023-03-23T01:48:06;2.00;;;1.40;;
48733;SDS011;34530;52.084;5.146;2023-03-23T01:50:50;3.75;;;1.63;;
48733;SDS011;34530;52.084;5.146;2023-03-23T01:53:20;3.17;;;1.80;;
48733;SDS011;34530;52.084;5.146;2023-03-23T01:55:49;2.45;;;1.92;;
48733;SDS011;34530;52.084;5.146;2023-03-23T01:58:19;4.22;;;1.95;;
48733;SDS011;34530;52.084;5.146;2023-03-23T02:00:50;4.85;;;1.80;;
48733;SDS011;34530;52.084;5.146;2023-03-23T02:03:18;2.47;;;2.22;;
48733;SDS011;34530;52.084;5.146;2023-03-23T02:05:44;4.32;;;2.15;;
48733;SDS011;34530;52.084;5.146;2023-03-23T02:08:10;3.17;;;1.48;;
48733;SDS011;34530;52.084;5.146;2023-03-23T02:10:39;2.38;;;1.70;;
48733;SDS011;34530;52.084;5.146;2023-03-23T02:13:05;2.88;;;1.52;;
48733;SDS011;34530;52.084;5.146;2023-03-23T02:29:13;2.45;;;1.90;;
48733;SDS011;34530;52.084;5.146;2023-03-23T02:37:08;2.95;;;1.67;;
48733;SDS011;34530;52.084;5.146;2023-03-23T02:39:48;2.08;;;1.50;;
48733;SDS011;34530;52.084;5.146;2023-03-23T02:42:20;2.42;;;1.63;;
48733;SDS011;34530;52.084;5.146;2023-03-23T02:44:51;2.38;;;1.50;;
48733;SDS011;34530;52.084;5.146;2023-03-23T02:47:19;1.52;;;1.40;;
48733;SDS011;34530;52.084;5.146;2023-03-23T02:49:48;1.83;;;1.52;;
48733;SDS011;34530;52.084;5.146;2023-03-23T02:52:20;1.92;;;1.48;;
48733;SDS011;34530;52.084;5.146;2023-03-23T02:54:51;2.25;;;1.70;;
48733;SDS011;34530;52.084;5.146;2023-03-23T02:57:19;2.22;;;1.40;;
48733;SDS011;34530;52.084;5.146;2023-03-23T02:59:46;2.28;;;1.50;;
48733;SDS011;34530;52.084;5.146;2023-03-23T03:04:40;3.25;;;1.85;;
48733;SDS011;34530;52.084;5.146;2023-03-23T03:09:59;2.95;;;1.50;;
48733;SDS011;34530;52.084;5.146;2023-03-23T03:12:46;2.95;;;1.80;;
48733;SDS011;34530;52.084;5.146;2023-03-23T03:18:05;2.97;;;1.88;;
48733;SDS011;34530;52.084;5.146;2023-03-23T03:20:38;1.35;;;1.20;;
48733;SDS011;34530;52.084;5.146;2023-03-23T03:23:09;2.28;;;1.73;;
48733;SDS011;34530;52.084;5.146;2023-03-23T03:25:38;1.90;;;1.70;;
48733;SDS011;34530;52.084;5.146;2023-03-23T03:28:06;1.60;;;1.40;;
48733;SDS011;34530;52.084;5.146;2023-03-23T03:30:32;2.03;;;1.50;;
48733;SDS011;34530;52.084;5.146;2023-03-23T03:33:01;2.20;;;1.67;;
48733;SDS011;34530;52.084;5.146;2023-03-23T03:35:28;2.15;;;1.60;;
48733;SDS011;34530;52.084;5.146;2023-03-23T03:37:55;2.92;;;1.77;;
48733;SDS011;34530;52.084;5.146;2023-03-23T03:40:23;3.33;;;1.77;;
48733;SDS011;34530;52.084;5.146;2023-03-23T03:42:49;2.75;;;1.50;;
48733;SDS011;34530;52.084;5.146;2023-03-23T03:45:16;2.53;;;1.70;;
48733;SDS011;34530;52.084;5.146;2023-03-23T03:47:43;2.95;;;1.50;;
48733;SDS011;34530;52.084;5.146;2023-03-23T03:50:09;2.22;;;1.38;;
48733;SDS011;34530;52.084;5.146;2023-03-23T03:52:36;3.42;;;1.63;;
48733;SDS011;34530;52.084;5.146;2023-03-23T03:55:03;2.83;;;1.55;;
48733;SDS011;34530;52.084;5.146;2023-03-23T03:57:29;2.55;;;1.50;;
48733;SDS011;34530;52.084;5.146;2023-03-23T03:59:55;2.05;;;1.45;;
48733;SDS011;34530;52.084;5.146;2023-03-23T04:02:21;2.60;;;1.65;;
48733;SDS011;34530;52.084;5.146;2023-03-23T04:04:47;3.25;;;1.55;;
48733;SDS011;34530;52.084;5.146;2023-03-23T04:07:14;2.17;;;1.40;;
48733;SDS011;34530;52.084;5.146;2023-03-23T04:09:41;3.35;;;1.75;;
48733;SDS011;34530;52.084;5.146;2023-03-23T04:12:08;1.45;;;1.35;;
48733;SDS011;34530;52.084;5.146;2023-03-23T04:14:34;1.80;;;1.67;;
48733;SDS011;34530;52.084;5.146;2023-03-23T04:17:00;1.70;;;1.42;;
48733;SDS011;34530;52.084;5.146;2023-03-23T04:19:26;3.92;;;1.80;;
48733;SDS011;34530;52.084;5.146;2023-03-23T04:21:53;2.38;;;1.55;;
48733;SDS011;34530;52.084;5.146;2023-03-23T04:24:20;3.22;;;1.48;;
48733;SDS011;34530;52.084;5.146;2023-03-23T04:26:49;5.13;;;1.63;;
48733;SDS011;34530;52.084;5.146;2023-03-23T04:29:17;5.25;;;1.58;;
48733;SDS011;34530;52.084;5.146;2023-03-23T04:31:43;3.38;;;1.63;;
48733;SDS011;34530;52.084;5.146;2023-03-23T04:34:10;2.65;;;1.45;;
48733;SDS011;34530;52.084;5.146;2023-03-23T04:36:38;1.15;;;1.05;;
48733;SDS011;34530;52.084;5.146;2023-03-23T04:39:05;2.65;;;1.75;;
48733;SDS011;34530;52.084;5.146;2023-03-23T04:41:34;2.17;;;1.65;;
48733;SDS011;34530;52.084;5.146;2023-03-23T04:44:03;4.70;;;1.83;;
48733;SDS011;34530;52.084;5.146;2023-03-23T04:46:29;3.50;;;1.50;;
48733;SDS011;34530;52.084;5.146;2023-03-23T04:48:55;4.57;;;1.50;;
48733;SDS011;34530;52.084;5.146;2023-03-23T04:51:23;2.58;;;1.52;;
48733;SDS011;34530;52.084;5.146;2023-03-23T04:53:51;3.30;;;1.88;;
48733;SDS011;34530;52.084;5.146;2023-03-23T04:56:16;3.63;;;1.38;;
48733;SDS011;34530;52.084;5.146;2023-03-23T04:58:43;3.53;;;1.60;;
48733;SDS011;34530;52.084;5.146;2023-03-23T05:01:10;1.77;;;1.05;;
48733;SDS011;34530;52.084;5.146;2023-03-23T05:03:39;3.08;;;1.65;;
48733;SDS011;34530;52.084;5.146;2023-03-23T05:06:05;3.33;;;1.48;;
48733;SDS011;34530;52.084;5.146;2023-03-23T05:08:31;1.83;;;1.23;;
48733;SDS011;34530;52.084;5.146;2023-03-23T05:10:58;3.30;;;1.40;;
48733;SDS011;34530;52.084;5.146;2023-03-23T05:13:26;3.30;;;1.55;;
48733;SDS011;34530;52.084;5.146;2023-03-23T05:15:53;4.68;;;1.63;;
48733;SDS011;34530;52.084;5.146;2023-03-23T05:18:19;5.53;;;1.80;;
48733;SDS011;34530;52.084;5.146;2023-03-23T05:20:45;6.00;;;1.80;;
48733;SDS011;34530;52.084;5.146;2023-03-23T05:23:11;3.13;;;1.40;;
48733;SDS011;34530;52.084;5.146;2023-03-23T05:25:37;4.95;;;1.45;;
48733;SDS011;34530;52.084;5.146;2023-03-23T05:28:07;3.78;;;1.40;;
48733;SDS011;34530;52.084;5.146;2023-03-23T05:30:34;3.78;;;1.58;;
48733;SDS011;34530;52.084;5.146;2023-03-23T05:33:00;3.88;;;1.80;;
48733;SDS011;34530;52.084;5.146;2023-03-23T05:35:26;2.83;;;1.48;;
48733;SDS011;34530;52.084;5.146;2023-03-23T05:37:52;4.78;;;1.77;;
48733;SDS011;34530;52.084;5.146;2023-03-23T05:40:18;5.57;;;1.67;;
48733;SDS011;34530;52.084;5.146;2023-03-23T05:42:45;2.22;;;1.60;;
48733;SDS011;34530;52.084;5.146;2023-03-23T05:45:12;3.13;;;1.60;;
48733;SDS011;34530;52.084;5.146;2023-03-23T05:47:38;3.15;;;1.55;;
48733;SDS011;34530;52.084;5.146;2023-03-23T05:50:06;6.07;;;2.00;;
48733;SDS011;34530;52.084;5.146;2023-03-23T05:52:34;3.65;;;1.60;;
48733;SDS011;34530;52.084;5.146;2023-03-23T05:55:00;4.28;;;1.88;;
48733;SDS011;34530;52.084;5.146;2023-03-23T05:57:28;5.35;;;1.73;;
48733;SDS011;34530;52.084;5.146;2023-03-23T05:59:55;3.67;;;1.70;;
48733;SDS011;34530;52.084;5.146;2023-03-23T06:02:22;3.55;;;1.58;;
48733;SDS011;34530;52.084;5.146;2023-03-23T06:04:49;3.95;;;1.52;;
48733;SDS011;34530;52.084;5.146;2023-03-23T06:07:15;3.28;;;1.58;;
48733;SDS011;34530;52.084;5.146;2023-03-23T06:09:41;4.28;;;1.80;;
48733;SDS011;34530;52.084;5.146;2023-03-23T06:12:07;2.53;;;1.48;;
48733;SDS011;34530;52.084;5.146;2023-03-23T06:14:34;3.05;;;1.58;;
48733;SDS011;34530;52.084;5.146;2023-03-23T06:17:00;3.40;;;1.75;;
48733;SDS011;34530;52.084;5.146;2023-03-23T06:19:26;5.38;;;2.05;;
48733;SDS011;34530;52.084;5.146;2023-03-23T06:21:52;4.40;;;1.90;;
48733;SDS011;34530;52.084;5.146;2023-03-23T06:24:19;4.72;;;1.63;;
48733;SDS011;34530;52.084;5.146;2023-03-23T06:26:46;3.50;;;1.60;;
48733;SDS011;34530;52.084;5.146;2023-03-23T06:29:12;5.47;;;1.48;;
48733;SDS011;34530;52.084;5.146;2023-03-23T06:31:40;4.22;;;1.90;;
48733;SDS011;34530;52.084;5.146;2023-03-23T06:34:08;4.10;;;1.75;;
48733;SDS011;34530;52.084;5.146;2023-03-23T06:36:35;4.35;;;1.70;;
48733;SDS011;34530;52.084;5.146;2023-03-23T06:39:01;3.50;;;1.70;;
48733;SDS011;34530;52.084;5.146;2023-03-23T06:41:29;3.55;;;1.60;;
48733;SDS011;34530;52.084;5.146;2023-03-23T06:43:56;2.60;;;1.83;;
48733;SDS011;34530;52.084;5.146;2023-03-23T06:46:22;3.85;;;1.77;;
48733;SDS011;34530;52.084;5.146;2023-03-23T06:48:47;4.30;;;1.58;;
48733;SDS011;34530;52.084;5.146;2023-03-23T06:51:14;4.25;;;1.65;;
48733;SDS011;34530;52.084;5.146;2023-03-23T06:53:41;3.13;;;1.67;;
48733;SDS011;34530;52.084;5.146;2023-03-23T06:56:06;4.72;;;1.92;;
48733;SDS011;34530;52.084;5.146;2023-03-23T06:58:32;4.05;;;1.70;;
48733;SDS011;34530;52.084;5.146;2023-03-23T07:00:58;6.18;;;2.13;;
48733;SDS011;34530;52.084;5.146;2023-03-23T07:03:24;4.25;;;1.77;;
48733;SDS011;34530;52.084;5.146;2023-03-23T07:05:51;4.10;;;2.00;;
48733;SDS011;34530;52.084;5.146;2023-03-23T07:08:16;4.65;;;1.38;;
48733;SDS011;34530;52.084;5.146;2023-03-23T07:10:42;3.35;;;1.50;;
48733;SDS011;34530;52.084;5.146;2023-03-23T07:13:08;6.38;;;1.90;;
48733;SDS011;34530;52.084;5.146;2023-03-23T07:15:34;5.57;;;2.05;;
48733;SDS011;34530;52.084;5.146;2023-03-23T07:18:00;4.30;;;1.83;;
48733;SDS011;34530;52.084;5.146;2023-03-23T07:20:26;3.80;;;1.40;;
48733;SDS011;34530;52.084;5.146;2023-03-23T07:22:53;5.28;;;1.90;;
48733;SDS011;34530;52.084;5.146;2023-03-23T07:25:19;2.95;;;1.80;;
48733;SDS011;34530;52.084;5.146;2023-03-23T07:27:45;3.75;;;1.88;;
48733;SDS011;34530;52.084;5.146;2023-03-23T07:30:11;3.80;;;1.75;;
48733;SDS011;34530;52.084;5.146;2023-03-23T07:32:37;5.03;;;1.58;;
48733;SDS011;34530;52.084;5.146;2023-03-23T07:35:03;6.95;;;2.05;;
48733;SDS011;34530;52.084;5.146;2023-03-23T07:37:29;2.80;;;1.55;;
48733;SDS011;34530;52.084;5.146;2023-03-23T07:39:55;4.55;;;1.52;;
48733;SDS011;34530;52.084;5.146;2023-03-23T07:42:20;5.07;;;1.73;;
48733;SDS011;34530;52.084;5.146;2023-03-23T07:44:46;4.72;;;1.52;;
48733;SDS011;34530;52.084;5.146;2023-03-23T07:47:11;6.18;;;2.00;;
48733;SDS011;34530;52.084;5.146;2023-03-23T07:49:38;4.85;;;1.83;;
48733;SDS011;34530;52.084;5.146;2023-03-23T07:52:04;3.70;;;1.73;;
48733;SDS011;34530;52.084;5.146;2023-03-23T07:54:29;6.18;;;1.77;;
48733;SDS011;34530;52.084;5.146;2023-03-23T07:56:55;3.90;;;1.60;;
48733;SDS011;34530;52.084;5.146;2023-03-23T07:59:21;3.85;;;1.70;;
48733;SDS011;34530;52.084;5.146;2023-03-23T08:01:47;4.75;;;2.10;;
48733;SDS011;34530;52.084;5.146;2023-03-23T08:04:12;4.32;;;1.90;;
48733;SDS011;34530;52.084;5.146;2023-03-23T08:06:40;5.20;;;1.67;;
48733;SDS011;34530;52.084;5.146;2023-03-23T08:09:06;4.93;;;1.92;;
48733;SDS011;34530;52.084;5.146;2023-03-23T08:11:36;4.40;;;1.90;;
48733;SDS011;34530;52.084;5.146;2023-03-23T08:14:03;5.22;;;2.08;;
48733;SDS011;34530;52.084;5.146;2023-03-23T08:16:30;5.18;;;1.63;;
48733;SDS011;34530;52.084;5.146;2023-03-23T08:18:57;3.85;;;1.60;;
48733;SDS011;34530;52.084;5.146;2023-03-23T08:21:22;3.40;;;1.88;;
48733;SDS011;34530;52.084;5.146;2023-03-23T08:23:48;3.08;;;1.45;;
48733;SDS011;34530;52.084;5.146;2023-03-23T08:26:14;4.78;;;1.80;;
48733;SDS011;34530;52.084;5.146;2023-03-23T08:28:42;7.05;;;2.20;;
48733;SDS011;34530;52.084;5.146;2023-03-23T08:31:13;5.70;;;1.98;;
48733;SDS011;34530;52.084;5.146;2023-03-23T08:33:40;3.00;;;1.50;;
48733;SDS011;34530;52.084;5.146;2023-03-23T08:36:06;4.72;;;2.00;;
48733;SDS011;34530;52.084;5.146;2023-03-23T08:38:33;3.17;;;1.75;;
48733;SDS011;34530;52.084;5.146;2023-03-23T08:41:00;3.88;;;1.70;;
48733;SDS011;34530;52.084;5.146;2023-03-23T08:43:28;4.82;;;2.03;;
48733;SDS011;34530;52.084;5.146;2023-03-23T08:45:53;7.70;;;2.10;;
48733;SDS011;34530;52.084;5.146;2023-03-23T08:48:20;5.28;;;1.98;;
48733;SDS011;34530;52.084;5.146;2023-03-23T08:50:47;5.50;;;2.05;;
48733;SDS011;34530;52.084;5.146;2023-03-23T08:53:13;4.22;;;1.80;;
48733;SDS011;34530;52.084;5.146;2023-03-23T08:55:39;5.25;;;1.90;;
48733;SDS011;34530;52.084;5.146;2023-03-23T08:58:05;4.10;;;1.58;;
48733;SDS011;34530;52.084;5.146;2023-03-23T09:00:30;5.43;;;1.83;;
48733;SDS011;34530;52.084;5.146;2023-03-23T09:02:57;6.18;;;2.03;;
48733;SDS011;34530;52.084;5.146;2023-03-23T09:05:24;5.97;;;2.33;;
48733;SDS011;34530;52.084;5.146;2023-03-23T09:07:53;4.35;;;2.13;;
48733;SDS011;34530;52.084;5.146;2023-03-23T09:10:21;5.47;;;1.80;;
48733;SDS011;34530;52.084;5.146;2023-03-23T09:12:47;5.47;;;1.63;;
48733;SDS011;34530;52.084;5.146;2023-03-23T09:15:15;6.55;;;2.10;;
48733;SDS011;34530;52.084;5.146;2023-03-23T09:17:43;4.75;;;1.85;;
48733;SDS011;34530;52.084;5.146;2023-03-23T09:20:11;5.80;;;1.92;;
48733;SDS011;34530;52.084;5.146;2023-03-23T09:22:43;7.97;;;2.13;;
48733;SDS011;34530;52.084;5.146;2023-03-23T09:25:10;7.63;;;2.53;;
48733;SDS011;34530;52.084;5.146;2023-03-23T09:27:38;11.63;;;2.90;;
48733;SDS011;34530;52.084;5.146;2023-03-23T09:30:06;10.52;;;2.83;;
48733;SDS011;34530;52.084;5.146;2023-03-23T09:32:35;6.35;;;2.22;;
48733;SDS011;34530;52.084;5.146;2023-03-23T09:35:02;11.02;;;3.22;;
48733;SDS011;34530;52.084;5.146;2023-03-23T09:37:28;6.90;;;2.42;;
48733;SDS011;34530;52.084;5.146;2023-03-23T09:39:54;6.90;;;2.83;;
48733;SDS011;34530;52.084;5.146;2023-03-23T09:42:29;11.55;;;2.80;;
48733;SDS011;34530;52.084;5.146;2023-03-23T09:45:20;10.93;;;2.55;;
48733;SDS011;34530;52.084;5.146;2023-03-23T09:48:19;10.88;;;3.33;;
48733;SDS011;34530;52.084;5.146;2023-03-23T09:50:50;7.88;;;2.60;;
48733;SDS011;34530;52.084;5.146;2023-03-23T09:53:22;7.25;;;2.67;;
48733;SDS011;34530;52.084;5.146;2023-03-23T09:55:59;9.25;;;3.10;;
48733;SDS011;34530;52.084;5.146;2023-03-23T09:58:30;10.10;;;2.92;;
48733;SDS011;34530;52.084;5.146;2023-03-23T10:01:08;12.15;;;3.40;;
48733;SDS011;34530;52.084;5.146;2023-03-23T10:03:45;12.35;;;3.00;;
48733;SDS011;34530;52.084;5.146;2023-03-23T10:06:15;10.70;;;3.05;;
48733;SDS011;34530;52.084;5.146;2023-03-23T10:08:47;12.20;;;2.80;;
48733;SDS011;34530;52.084;5.146;2023-03-23T10:11:37;11.23;;;3.30;;
48733;SDS011;34530;52.084;5.146;2023-03-23T10:17:25;16.73;;;3.17;;
48733;SDS011;34530;52.084;5.146;2023-03-23T10:25:40;10.98;;;2.78;;
48733;SDS011;34530;52.084;5.146;2023-03-23T10:30:42;11.70;;;3.08;;
48733;SDS011;34530;52.084;5.146;2023-03-23T10:38:44;11.63;;;3.30;;
48733;SDS011;34530;52.084;5.146;2023-03-23T10:41:15;12.95;;;3.38;;
48733;SDS011;34530;52.084;5.146;2023-03-23T10:43:43;13.45;;;3.28;;
48733;SDS011;34530;52.084;5.146;2023-03-23T10:46:56;14.38;;;2.92;;
48733;SDS011;34530;52.084;5.146;2023-03-23T10:49:26;9.23;;;2.70;;
48733;SDS011;34530;52.084;5.146;2023-03-23T10:55:13;12.13;;;2.90;;
48733;SDS011;34530;52.084;5.146;2023-03-23T10:57:44;12.02;;;3.22;;
48733;SDS011;34530;52.084;5.146;2023-03-23T11:02:56;10.23;;;3.10;;
48733;SDS011;34530;52.084;5.146;2023-03-23T11:08:25;10.02;;;3.00;;
48733;SDS011;34530;52.084;5.146;2023-03-23T11:10:56;9.60;;;2.78;;
48733;SDS011;34530;52.084;5.146;2023-03-23T11:13:32;12.68;;;3.17;;
48733;SDS011;34530;52.084;5.146;2023-03-23T11:15:59;9.50;;;3.50;;
48733;SDS011;34530;52.084;5.146;2023-03-23T11:18:46;13.98;;;3.80;;
48733;SDS011;34530;52.084;5.146;2023-03-23T11:21:12;11.55;;;3.05;;
48733;SDS011;34530;52.084;5.146;2023-03-23T11:23:39;12.68;;;3.25;;
48733;SDS011;34530;52.084;5.146;2023-03-23T11:28:55;9.82;;;3.00;;
48733;SDS011;34530;52.084;5.146;2023-03-23T11:31:26;17.90;;;3.65;;
48733;SDS011;34530;52.084;5.146;2023-03-23T11:34:04;8.57;;;2.83;;
48733;SDS011;34530;52.084;5.146;2023-03-23T11:36:43;15.63;;;3.30;;
48733;SDS011;34530;52.084;5.146;2023-03-23T11:39:21;9.60;;;2.33;;
48733;SDS011;34530;52.084;5.146;2023-03-23T11:41:52;10.55;;;3.08;;
48733;SDS011;34530;52.084;5.146;2023-03-23T11:44:20;13.30;;;3.30;;
48733;SDS011;34530;52.084;5.146;2023-03-23T11:49:45;10.90;;;3.03;;
48733;SDS011;34530;52.084;5.146;2023-03-23T11:55:20;13.25;;;2.72;;
48733;SDS011;34530;52.084;5.146;2023-03-23T11:57:50;14.85;;;3.33;;
48733;SDS011;34530;52.084;5.146;2023-03-23T12:00:20;9.38;;;2.95;;
48733;SDS011;34530;52.084;5.146;2023-03-23T12:08:26;13.00;;;3.30;;
48733;SDS011;34530;52.084;5.146;2023-03-23T12:17:04;12.88;;;3.00;;
48733;SDS011;34530;52.084;5.146;2023-03-23T12:25:38;9.15;;;3.08;;
48733;SDS011;34530;52.084;5.146;2023-03-23T12:28:32;10.23;;;2.90;;
48733;SDS011;34530;52.084;5.146;2023-03-23T12:46:07;10.50;;;2.80;;
48733;SDS011;34530;52.084;5.146;2023-03-23T13:00:22;9.27;;;2.85;;
48733;SDS011;34530;52.084;5.146;2023-03-23T13:02:59;10.27;;;2.80;;
48733;SDS011;34530;52.084;5.146;2023-03-23T13:05:41;6.68;;;2.42;;
48733;SDS011;34530;52.084;5.146;2023-03-23T13:08:31;9.23;;;3.00;;
48733;SDS011;34530;52.084;5.146;2023-03-23T13:11:08;10.27;;;3.38;;
48733;SDS011;34530;52.084;5.146;2023-03-23T13:13:44;6.30;;;2.47;;
48733;SDS011;34530;52.084;5.146;2023-03-23T13:21:42;8.25;;;2.50;;
48733;SDS011;34530;52.084;5.146;2023-03-23T13:24:19;9.38;;;2.72;;
48733;SDS011;34530;52.084;5.146;2023-03-23T13:26:49;8.52;;;2.65;;
48733;SDS011;34530;52.084;5.146;2023-03-23T13:29:19;6.47;;;2.28;;
48733;SDS011;34530;52.084;5.146;2023-03-23T13:31:49;10.77;;;2.80;;
48733;SDS011;34530;52.084;5.146;2023-03-23T13:36:54;11.20;;;2.75;;
48733;SDS011;34530;52.084;5.146;2023-03-23T13:39:24;8.77;;;2.85;;
48733;SDS011;34530;52.084;5.146;2023-03-23T13:42:02;7.03;;;2.65;;
48733;SDS011;34530;52.084;5.146;2023-03-23T13:50:05;7.93;;;2.30;;
48733;SDS011;34530;52.084;5.146;2023-03-23T14:05:36;6.40;;;2.47;;
48733;SDS011;34530;52.084;5.146;2023-03-23T14:10:54;7.82;;;2.10;;
48733;SDS011;34530;52.084;5.146;2023-03-23T14:15:59;8.23;;;2.35;;
48733;SDS011;34530;52.084;5.146;2023-03-23T14:18:30;4.85;;;2.10;;
48733;SDS011;34530;52.084;5.146;2023-03-23T14:21:00;8.20;;;2.33;;
48733;SDS011;34530;52.084;5.146;2023-03-23T14:23:26;6.15;;;2.72;;
48733;SDS011;34530;52.084;5.146;2023-03-23T14:26:11;6.70;;;2.40;;
48733;SDS011;34530;52.084;5.146;2023-03-23T14:28:42;6.75;;;1.98;;
48733;SDS011;34530;52.084;5.146;2023-03-23T14:31:14;5.38;;;2.40;;
48733;SDS011;34530;52.084;5.146;2023-03-23T14:33:41;7.82;;;2.40;;
48733;SDS011;34530;52.084;5.146;2023-03-23T14:36:07;5.85;;;2.15;;
48733;SDS011;34530;52.084;5.146;2023-03-23T14:38:33;7.22;;;2.55;;
48733;SDS011;34530;52.084;5.146;2023-03-23T14:41:00;8.30;;;2.80;;
48733;SDS011;34530;52.084;5.146;2023-03-23T14:43:27;3.67;;;1.92;;
48733;SDS011;34530;52.084;5.146;2023-03-23T14:45:56;6.50;;;2.10;;
48733;SDS011;34530;52.084;5.146;2023-03-23T14:48:25;7.90;;;2.28;;
48733;SDS011;34530;52.084;5.146;2023-03-23T14:50:52;6.50;;;2.33;;
48733;SDS011;34530;52.084;5.146;2023-03-23T14:53:22;7.00;;;2.03;;
48733;SDS011;34530;52.084;5.146;2023-03-23T14:55:51;8.68;;;2.88;;
48733;SDS011;34530;52.084;5.146;2023-03-23T14:58:20;10.10;;;1.95;;
48733;SDS011;34530;52.084;5.146;2023-03-23T15:01:01;6.90;;;2.28;;
48733;SDS011;34530;52.084;5.146;2023-03-23T15:03:30;7.90;;;2.13;;
48733;SDS011;34530;52.084;5.146;2023-03-23T15:06:16;5.28;;;2.33;;
48733;SDS011;34530;52.084;5.146;2023-03-23T15:08:44;4.95;;;2.28;;
48733;SDS011;34530;52.084;5.146;2023-03-23T15:13:44;7.43;;;2.25;;
48733;SDS011;34530;52.084;5.146;2023-03-23T15:16:13;6.72;;;2.25;;
48733;SDS011;34530;52.084;5.146;2023-03-23T15:18:51;6.32;;;2.75;;
48733;SDS011;34530;52.084;5.146;2023-03-23T15:21:32;8.73;;;2.88;;
48733;SDS011;34530;52.084;5.146;2023-03-23T15:24:00;7.50;;;2.63;;
48733;SDS011;34530;52.084;5.146;2023-03-23T15:26:34;7.15;;;2.15;;
48733;SDS011;34530;52.084;5.146;2023-03-23T15:31:44;6.10;;;2.45;;
48733;SDS011;34530;52.084;5.146;2023-03-23T15:34:24;4.65;;;2.00;;
48733;SDS011;34530;52.084;5.146;2023-03-23T15:36:55;5.43;;;2.40;;
48733;SDS011;34530;52.084;5.146;2023-03-23T15:39:28;10.52;;;2.35;;
48733;SDS011;34530;52.084;5.146;2023-03-23T15:41:56;6.03;;;2.13;;
48733;SDS011;34530;52.084;5.146;2023-03-23T15:44:27;7.13;;;2.33;;
48733;SDS011;34530;52.084;5.146;2023-03-23T15:47:18;6.35;;;2.10;;
48733;SDS011;34530;52.084;5.146;2023-03-23T15:49:45;5.78;;;2.03;;
48733;SDS011;34530;52.084;5.146;2023-03-23T15:52:12;6.63;;;2.15;;
48733;SDS011;34530;52.084;5.146;2023-03-23T15:54:39;7.30;;;2.10;;
48733;SDS011;34530;52.084;5.146;2023-03-23T15:57:11;5.65;;;2.08;;
48733;SDS011;34530;52.084;5.146;2023-03-23T15:59:37;9.32;;;2.53;;
48733;SDS011;34530;52.084;5.146;2023-03-23T16:02:03;6.03;;;2.13;;
48733;SDS011;34530;52.084;5.146;2023-03-23T16:04:28;4.53;;;1.90;;
48733;SDS011;34530;52.084;5.146;2023-03-23T16:06:55;7.68;;;2.17;;
48733;SDS011;34530;52.084;5.146;2023-03-23T16:09:23;6.22;;;2.10;;
48733;SDS011;34530;52.084;5.146;2023-03-23T16:11:48;5.97;;;2.33;;
48733;SDS011;34530;52.084;5.146;2023-03-23T16:14:14;9.48;;;2.53;;
48733;SDS011;34530;52.084;5.146;2023-03-23T16:16:44;11.45;;;2.60;;
48733;SDS011;34530;52.084;5.146;2023-03-23T16:19:12;7.15;;;2.03;;
48733;SDS011;34530;52.084;5.146;2023-03-23T16:21:39;7.60;;;2.38;;
48733;SDS011;34530;52.084;5.146;2023-03-23T16:24:05;6.05;;;2.10;;
48733;SDS011;34530;52.084;5.146;2023-03-23T16:26:32;4.72;;;2.05;;
48733;SDS011;34530;52.084;5.146;2023-03-23T16:28:57;5.93;;;1.98;;
48733;SDS011;34530;52.084;5.146;2023-03-23T16:31:23;5.32;;;1.77;;
48733;SDS011;34530;52.084;5.146;2023-03-23T16:33:49;6.22;;;2.20;;
48733;SDS011;34530;52.084;5.146;2023-03-23T16:36:15;6.53;;;2.17;;
48733;SDS011;34530;52.084;5.146;2023-03-23T16:38:41;6.22;;;2.13;;
48733;SDS011;34530;52.084;5.146;2023-03-23T16:41:07;6.25;;;2.13;;
48733;SDS011;34530;52.084;5.146;2023-03-23T16:43:33;5.82;;;2.28;;
48733;SDS011;34530;52.084;5.146;2023-03-23T16:45:59;6.38;;;2.08;;
48733;SDS011;34530;52.084;5.146;2023-03-23T16:48:25;6.88;;;2.20;;
48733;SDS011;34530;52.084;5.146;2023-03-23T16:50:51;6.45;;;2.50;;
48733;SDS011;34530;52.084;5.146;2023-03-23T16:53:17;6.05;;;2.03;;
48733;SDS011;34530;52.084;5.146;2023-03-23T16:55:42;6.85;;;2.13;;
48733;SDS011;34530;52.084;5.146;2023-03-23T16:58:12;5.53;;;2.25;;
48733;SDS011;34530;52.084;5.146;2023-03-23T17:00:41;5.43;;;2.10;;
48733;SDS011;34530;52.084;5.146;2023-03-23T17:03:08;8.32;;;2.28;;
48733;SDS011;34530;52.084;5.146;2023-03-23T17:05:35;6.57;;;2.15;;
48733;SDS011;34530;52.084;5.146;2023-03-23T17:08:02;6.63;;;2.00;;
48733;SDS011;34530;52.084;5.146;2023-03-23T17:10:28;6.20;;;2.50;;
48733;SDS011;34530;52.084;5.146;2023-03-23T17:12:55;5.18;;;1.90;;
48733;SDS011;34530;52.084;5.146;2023-03-23T17:15:20;4.97;;;2.33;;
48733;SDS011;34530;52.084;5.146;2023-03-23T17:17:48;5.03;;;2.05;;
48733;SDS011;34530;52.084;5.146;2023-03-23T17:20:14;6.40;;;2.70;;
48733;SDS011;34530;52.084;5.146;2023-03-23T17:22:40;7.57;;;2.25;;